world map with ATF marked

ATF - Airport

This information may not be accurate or current and is not valid for navigation or flight planning. No warranty of fitness for any purpose is made or implied.

flag of Tungurahuaflag of Ecuador

Donate via PayPal

Additional information is available on the NEW Great Circle Mapper

Location
City:  Ambato, Tungurahua, Ecuador
Name:Chachoan
ICAO / IATA:SEAM / ATF

Details
Type:Airport (Aerodrome, Airfield)
Latitude:1°12'43"S (-1.212066)
Longitude:78°34'29"W (-78.574635)
Datum:WGS 1984
Elevation:8502 ft (2591 m)
Runways:1
Longest:6316 × 82 ft (1925 × 25 m)

Time
Timezone:UTC+29:08 (DST+31:08)
Local Time:

Weather
METAR:SEAM  152100Z 06004KT 9999 SCT030 BKN100 16/12 Q1025

Related Locations
Nearby:
Farthest:DUM: 12450 mi / 20036 km
Dumai [Pinang Kampai Airport], RI, ID

Find:

   beyond  
but within

Other Information
Maps:
Sources:

  


 


Great Circle Mapper   Great Circle Mapper
Great Circle Mapper FAQ   Great Circle Mapper FAQ
  Karl's Home Page
KLSē   KLSē Home
   GC on Facebook
Airlines of the World   Airlines of the World
Donate via PayPal


Copyright © 2004-2019, Karl L. Swartz. All rights reserved.
All trademarks mentioned herein belong to their respective owners.

Please see credits for attribution and copyright information.

Karl Swartz <karl@kls2.com>
  Powered by FreeBSD
Valid HTML 4.01!
Labeled with ICRA
hCard Microformat
Geo Microformat